sensor_id;sensor_type;location;lat;lon;timestamp;temperature;humidity
67777;DHT22;54576;52.020;5.536;2022-09-09T00:03:54;16.00;79.20
67777;DHT22;54576;52.020;5.536;2022-09-09T00:06:27;16.00;79.50
67777;DHT22;54576;52.020;5.536;2022-09-09T00:11:49;15.90;79.80
67777;DHT22;54576;52.020;5.536;2022-09-09T00:14:26;15.80;83.80
67777;DHT22;54576;52.020;5.536;2022-09-09T00:16:56;15.80;80.30
67777;DHT22;54576;52.020;5.536;2022-09-09T00:19:28;15.80;80.40
67777;DHT22;54576;52.020;5.536;2022-09-09T00:22:13;15.80;80.20
67777;DHT22;54576;52.020;5.536;2022-09-09T00:24:42;15.80;80.80
67777;DHT22;54576;52.020;5.536;2022-09-09T00:27:36;15.70;80.50
67777;DHT22;54576;52.020;5.536;2022-09-09T00:32:58;15.70;98.70
67777;DHT22;54576;52.020;5.536;2022-09-09T00:35:36;15.60;80.70
67777;DHT22;54576;52.020;5.536;2022-09-09T00:38:13;15.60;81.00
67777;DHT22;54576;52.020;5.536;2022-09-09T00:40:52;15.50;81.00
67777;DHT22;54576;52.020;5.536;2022-09-09T00:43:29;15.50;81.10
67777;DHT22;54576;52.020;5.536;2022-09-09T00:48:47;15.50;81.40
67777;DHT22;54576;52.020;5.536;2022-09-09T00:51:51;15.40;81.10
67777;DHT22;54576;52.020;5.536;2022-09-09T00:54:23;15.40;80.80
67777;DHT22;54576;52.020;5.536;2022-09-09T00:59:56;15.30;80.70
67777;DHT22;54576;52.020;5.536;2022-09-09T01:02:28;15.30;80.90
67777;DHT22;54576;52.020;5.536;2022-09-09T01:05:10;15.30;80.70
67777;DHT22;54576;52.020;5.536;2022-09-09T01:07:38;15.30;80.90
67777;DHT22;54576;52.020;5.536;2022-09-09T01:10:15;15.20;80.70
67777;DHT22;54576;52.020;5.536;2022-09-09T01:12:47;15.20;80.70
67777;DHT22;54576;52.020;5.536;2022-09-09T01:15:19;15.20;80.60
67777;DHT22;54576;52.020;5.536;2022-09-09T01:17:52;15.20;80.70
67777;DHT22;54576;52.020;5.536;2022-09-09T01:20:28;15.20;80.90
67777;DHT22;54576;52.020;5.536;2022-09-09T01:28:40;15.10;81.00
67777;DHT22;54576;52.020;5.536;2022-09-09T01:31:10;15.10;81.80
67777;DHT22;54576;52.020;5.536;2022-09-09T01:33:37;15.10;81.10
67777;DHT22;54576;52.020;5.536;2022-09-09T01:36:08;15.10;82.90
67777;DHT22;54576;52.020;5.536;2022-09-09T01:38:36;15.10;80.40
67777;DHT22;54576;52.020;5.536;2022-09-09T01:41:02;15.00;80.50
67777;DHT22;54576;52.020;5.536;2022-09-09T01:43:28;15.00;80.60
67777;DHT22;54576;52.020;5.536;2022-09-09T01:45:56;15.00;80.90
67777;DHT22;54576;52.020;5.536;2022-09-09T01:48:25;15.00;80.90
67777;DHT22;54576;52.020;5.536;2022-09-09T01:50:51;15.00;81.00
67777;DHT22;54576;52.020;5.536;2022-09-09T01:53:19;14.90;81.50
67777;DHT22;54576;52.020;5.536;2022-09-09T02:04:54;14.70;82.30
67777;DHT22;54576;52.020;5.536;2022-09-09T02:06:55;14.70;82.10
67777;DHT22;54576;52.020;5.536;2022-09-09T02:09:24;14.60;82.20
67777;DHT22;54576;52.020;5.536;2022-09-09T02:12:01;14.60;82.20
67777;DHT22;54576;52.020;5.536;2022-09-09T02:14:35;14.60;82.20
67777;DHT22;54576;52.020;5.536;2022-09-09T02:17:10;14.60;82.50
67777;DHT22;54576;52.020;5.536;2022-09-09T02:19:42;14.50;82.40
67777;DHT22;54576;52.020;5.536;2022-09-09T02:22:10;14.50;82.30
67777;DHT22;54576;52.020;5.536;2022-09-09T02:24:38;14.50;82.40
67777;DHT22;54576;52.020;5.536;2022-09-09T02:27:06;14.50;82.20
67777;DHT22;54576;52.020;5.536;2022-09-09T02:29:42;14.50;82.10
67777;DHT22;54576;52.020;5.536;2022-09-09T02:32:20;14.50;81.90
67777;DHT22;54576;52.020;5.536;2022-09-09T02:34:50;14.60;82.30
67777;DHT22;54576;52.020;5.536;2022-09-09T02:37:21;14.60;81.70
67777;DHT22;54576;52.020;5.536;2022-09-09T02:39:48;14.50;82.20
67777;DHT22;54576;52.020;5.536;2022-09-09T02:42:14;14.50;82.40
67777;DHT22;54576;52.020;5.536;2022-09-09T02:44:41;14.50;82.20
67777;DHT22;54576;52.020;5.536;2022-09-09T02:47:26;14.50;81.90
67777;DHT22;54576;52.020;5.536;2022-09-09T02:58:04;14.50;81.80
67777;DHT22;54576;52.020;5.536;2022-09-09T03:00:31;14.50;82.20
67777;DHT22;54576;52.020;5.536;2022-09-09T03:02:58;14.40;82.40
67777;DHT22;54576;52.020;5.536;2022-09-09T03:05:23;14.40;82.30
67777;DHT22;54576;52.020;5.536;2022-09-09T03:07:49;14.40;82.50
67777;DHT22;54576;52.020;5.536;2022-09-09T03:10:16;14.40;82.30
67777;DHT22;54576;52.020;5.536;2022-09-09T03:12:42;14.40;82.10
67777;DHT22;54576;52.020;5.536;2022-09-09T03:15:08;14.40;82.60
67777;DHT22;54576;52.020;5.536;2022-09-09T03:17:35;14.30;82.30
67777;DHT22;54576;52.020;5.536;2022-09-09T03:20:02;14.30;82.40
67777;DHT22;54576;52.020;5.536;2022-09-09T03:22:28;14.30;82.40
67777;DHT22;54576;52.020;5.536;2022-09-09T03:24:54;14.30;82.70
67777;DHT22;54576;52.020;5.536;2022-09-09T03:27:19;14.30;82.80
67777;DHT22;54576;52.020;5.536;2022-09-09T03:29:45;14.20;82.90
67777;DHT22;54576;52.020;5.536;2022-09-09T03:32:12;14.20;83.00
67777;DHT22;54576;52.020;5.536;2022-09-09T03:34:38;14.20;83.40
67777;DHT22;54576;52.020;5.536;2022-09-09T03:37:06;14.20;83.30
67777;DHT22;54576;52.020;5.536;2022-09-09T03:39:32;14.20;83.20
67777;DHT22;54576;52.020;5.536;2022-09-09T03:41:57;14.20;83.40
67777;DHT22;54576;52.020;5.536;2022-09-09T03:44:23;14.20;83.80
67777;DHT22;54576;52.020;5.536;2022-09-09T03:46:49;14.20;84.20
67777;DHT22;54576;52.020;5.536;2022-09-09T03:49:14;14.20;83.90
67777;DHT22;54576;52.020;5.536;2022-09-09T03:51:41;14.20;83.90
67777;DHT22;54576;52.020;5.536;2022-09-09T03:54:07;14.20;84.00
67777;DHT22;54576;52.020;5.536;2022-09-09T03:56:36;14.20;83.70
67777;DHT22;54576;52.020;5.536;2022-09-09T03:59:01;14.20;83.80
67777;DHT22;54576;52.020;5.536;2022-09-09T04:01:28;14.20;84.30
67777;DHT22;54576;52.020;5.536;2022-09-09T04:03:53;14.20;84.10
67777;DHT22;54576;52.020;5.536;2022-09-09T04:06:20;14.20;84.10
67777;DHT22;54576;52.020;5.536;2022-09-09T04:08:46;14.20;84.00
67777;DHT22;54576;52.020;5.536;2022-09-09T04:11:14;14.20;84.00
67777;DHT22;54576;52.020;5.536;2022-09-09T04:13:40;14.20;84.50
67777;DHT22;54576;52.020;5.536;2022-09-09T04:16:09;14.10;84.20
67777;DHT22;54576;52.020;5.536;2022-09-09T04:18:35;14.10;84.50
67777;DHT22;54576;52.020;5.536;2022-09-09T04:21:01;14.10;84.40
67777;DHT22;54576;52.020;5.536;2022-09-09T04:23:28;14.10;84.70
67777;DHT22;54576;52.020;5.536;2022-09-09T04:25:58;14.10;84.30
67777;DHT22;54576;52.020;5.536;2022-09-09T04:28:26;14.10;84.60
67777;DHT22;54576;52.020;5.536;2022-09-09T04:30:52;14.10;84.80
67777;DHT22;54576;52.020;5.536;2022-09-09T04:33:19;14.10;85.10
67777;DHT22;54576;52.020;5.536;2022-09-09T04:35:49;14.10;84.80
67777;DHT22;54576;52.020;5.536;2022-09-09T04:38:16;14.10;85.30
67777;DHT22;54576;52.020;5.536;2022-09-09T04:40:49;14.10;85.10
67777;DHT22;54576;52.020;5.536;2022-09-09T04:43:15;14.20;85.00
67777;DHT22;54576;52.020;5.536;2022-09-09T04:45:41;14.10;85.10
67777;DHT22;54576;52.020;5.536;2022-09-09T04:48:08;14.20;85.10
67777;DHT22;54576;52.020;5.536;2022-09-09T04:50:34;14.20;84.80
67777;DHT22;54576;52.020;5.536;2022-09-09T04:53:01;14.20;85.10
67777;DHT22;54576;52.020;5.536;2022-09-09T04:55:27;14.20;84.80
67777;DHT22;54576;52.020;5.536;2022-09-09T04:57:53;14.20;85.30
67777;DHT22;54576;52.020;5.536;2022-09-09T05:00:19;14.20;84.50
67777;DHT22;54576;52.020;5.536;2022-09-09T05:02:44;14.20;85.20
